sensor_id;sensor_type;location;lat;lon;timestamp;pressure;altitude;pressure_sealevel;temperature;humidity
71565;BME280;59397;50.952;14.502;2023-09-19T00:01:51;965.19;;;15.38;100.00
71565;BME280;59397;50.952;14.502;2023-09-19T00:21:25;964.99;;;15.12;100.00
71565;BME280;59397;50.952;14.502;2023-09-19T00:40:59;965.07;;;15.34;100.00
71565;BME280;59397;50.952;14.502;2023-09-19T01:00:33;965.02;;;15.18;100.00
71565;BME280;59397;50.952;14.502;2023-09-19T01:20:10;964.87;;;15.05;100.00
71565;BME280;59397;50.952;14.502;2023-09-19T01:39:41;964.99;;;15.04;100.00
71565;BME280;59397;50.952;14.502;2023-09-19T01:59:16;964.87;;;15.06;100.00
71565;BME280;59397;50.952;14.502;2023-09-19T02:18:49;964.91;;;14.99;100.00
71565;BME280;59397;50.952;14.502;2023-09-19T02:38:25;964.98;;;15.06;100.00
71565;BME280;59397;50.952;14.502;2023-09-19T02:57:59;965.17;;;15.05;100.00
71565;BME280;59397;50.952;14.502;2023-09-19T03:17:32;965.25;;;15.01;100.00
71565;BME280;59397;50.952;14.502;2023-09-19T03:37:07;965.37;;;15.15;100.00
71565;BME280;59397;50.952;14.502;2023-09-19T03:56:40;965.28;;;14.76;100.00
71565;BME280;59397;50.952;14.502;2023-09-19T04:16:13;965.42;;;14.73;100.00
71565;BME280;59397;50.952;14.502;2023-09-19T04:35:48;965.43;;;14.69;100.00
71565;BME280;59397;50.952;14.502;2023-09-19T04:55:22;965.86;;;14.62;100.00
71565;BME280;59397;50.952;14.502;2023-09-19T05:14:57;965.96;;;14.82;100.00
71565;BME280;59397;50.952;14.502;2023-09-19T05:34:32;966.09;;;14.66;100.00
71565;BME280;59397;50.952;14.502;2023-09-19T05:54:06;966.35;;;14.58;100.00
71565;BME280;59397;50.952;14.502;2023-09-19T06:13:42;966.56;;;14.99;100.00
71565;BME280;59397;50.952;14.502;2023-09-19T06:33:18;966.90;;;15.55;100.00
71565;BME280;59397;50.952;14.502;2023-09-19T06:52:54;967.07;;;15.68;100.00
71565;BME280;59397;50.952;14.502;2023-09-19T07:12:29;967.43;;;16.14;100.00
71565;BME280;59397;50.952;14.502;2023-09-19T07:32:04;967.63;;;16.02;100.00
71565;BME280;59397;50.952;14.502;2023-09-19T07:51:40;967.83;;;16.24;100.00
71565;BME280;59397;50.952;14.502;2023-09-19T08:11:15;967.91;;;17.07;100.00
71565;BME280;59397;50.952;14.502;2023-09-19T08:30:49;968.03;;;16.65;96.34
71565;BME280;59397;50.952;14.502;2023-09-19T08:50:26;968.00;;;17.30;88.44
71565;BME280;59397;50.952;14.502;2023-09-19T09:10:02;967.99;;;18.13;83.47
71565;BME280;59397;50.952;14.502;2023-09-19T09:49:10;968.17;;;18.26;77.67
71565;BME280;59397;50.952;14.502;2023-09-19T10:28:20;968.40;;;18.59;80.68
71565;BME280;59397;50.952;14.502;2023-09-19T10:47:56;968.33;;;18.93;75.33
71565;BME280;59397;50.952;14.502;2023-09-19T11:07:31;968.41;;;18.23;73.22
71565;BME280;59397;50.952;14.502;2023-09-19T11:27:11;968.36;;;19.38;66.36
71565;BME280;59397;50.952;14.502;2023-09-19T11:46:51;968.30;;;19.60;69.69
71565;BME280;59397;50.952;14.502;2023-09-19T12:06:20;968.17;;;20.00;66.27
71565;BME280;59397;50.952;14.502;2023-09-19T12:25:54;968.17;;;19.40;61.23
71565;BME280;59397;50.952;14.502;2023-09-19T12:45:29;968.15;;;19.95;57.66
71565;BME280;59397;50.952;14.502;2023-09-19T13:05:05;968.17;;;20.09;57.27
71565;BME280;59397;50.952;14.502;2023-09-19T13:24:38;968.09;;;19.96;59.73
71565;BME280;59397;50.952;14.502;2023-09-19T13:44:13;968.04;;;19.71;57.59
71565;BME280;59397;50.952;14.502;2023-09-19T14:03:46;968.05;;;19.60;54.57
71565;BME280;59397;50.952;14.502;2023-09-19T14:23:19;967.99;;;19.44;55.11
71565;BME280;59397;50.952;14.502;2023-09-19T14:42:53;968.07;;;19.13;52.14
71565;BME280;59397;50.952;14.502;2023-09-19T15:02:28;968.05;;;19.48;53.11
71565;BME280;59397;50.952;14.502;2023-09-19T15:22:02;968.08;;;19.31;53.34
71565;BME280;59397;50.952;14.502;2023-09-19T15:41:36;968.05;;;19.15;53.53
71565;BME280;59397;50.952;14.502;2023-09-19T16:01:09;968.06;;;19.30;55.50
71565;BME280;59397;50.952;14.502;2023-09-19T16:20:41;968.01;;;18.45;58.16
71565;BME280;59397;50.952;14.502;2023-09-19T16:40:14;968.10;;;18.08;64.12
71565;BME280;59397;50.952;14.502;2023-09-19T16:59:43;968.28;;;17.11;72.60
71565;BME280;59397;50.952;14.502;2023-09-19T17:19:12;968.43;;;14.98;83.59
71565;BME280;59397;50.952;14.502;2023-09-19T17:38:43;968.68;;;14.22;89.97
71565;BME280;59397;50.952;14.502;2023-09-19T17:58:14;968.88;;;13.78;90.72
71565;BME280;59397;50.952;14.502;2023-09-19T18:17:43;969.17;;;12.72;98.68
71565;BME280;59397;50.952;14.502;2023-09-19T18:37:14;969.44;;;11.95;100.00
71565;BME280;59397;50.952;14.502;2023-09-19T18:56:46;969.57;;;10.90;100.00
71565;BME280;59397;50.952;14.502;2023-09-19T19:16:21;969.66;;;10.75;100.00
71565;BME280;59397;50.952;14.502;2023-09-19T19:55:31;969.84;;;9.81;100.00
71565;BME280;59397;50.952;14.502;2023-09-19T20:15:06;969.82;;;10.59;100.00
71565;BME280;59397;50.952;14.502;2023-09-19T20:34:42;969.89;;;10.86;100.00
71565;BME280;59397;50.952;14.502;2023-09-19T20:54:16;969.89;;;10.64;100.00
71565;BME280;59397;50.952;14.502;2023-09-19T21:13:48;969.81;;;10.02;100.00
71565;BME280;59397;50.952;14.502;2023-09-19T21:33:23;969.77;;;10.44;100.00
71565;BME280;59397;50.952;14.502;2023-09-19T21:52:58;969.82;;;10.32;100.00
71565;BME280;59397;50.952;14.502;2023-09-19T22:12:30;969.71;;;10.01;100.00
71565;BME280;59397;50.952;14.502;2023-09-19T22:32:03;969.74;;;9.31;100.00
71565;BME280;59397;50.952;14.502;2023-09-19T22:51:37;969.71;;;9.36;100.00
71565;BME280;59397;50.952;14.502;2023-09-19T23:11:13;969.88;;;9.59;100.00
71565;BME280;59397;50.952;14.502;2023-09-19T23:30:45;969.92;;;9.32;100.00
71565;BME280;59397;50.952;14.502;2023-09-19T23:50:20;970.08;;;9.22;100.00
